<?xml version="1.0" encoding="UTF-8" standalone="no" ?>
<gpx xmlns="http://www.topografix.com/GPX/1/1" xmlns:xsi="http://www.w3.org/2001/XMLSchema-instance" xsi:schemaLocation="http://www.topografix.com/GPX/1/1 http://www.topografix.com/GPX/1/1/gpx.xsd" version="1.1" creator="VisuGPX - https://www.visugpx.com">
  <metadata>
    <name>Goult à Saint Pantaléon</name>
  </metadata>
  <trk>
    <name><![CDATA[Goult à Saint Pantaléon]]></name>
    <trkseg>
      <trkpt lat="43.86261" lon="5.2447">
        <ele>228.9</ele>
        <time>2021-02-20T10:10:15+01:00</time>
      </trkpt>
      <trkpt lat="43.86252" lon="5.24441">
        <ele>229</ele>
        <time>2021-02-20T10:14:44+01:00</time>
      </trkpt>
      <trkpt lat="43.86251" lon="5.24408">
        <ele>228.9</ele>
        <time>2021-02-20T10:15:16+01:00</time>
      </trkpt>
      <trkpt lat="43.86254" lon="5.24377">
        <ele>228.8</ele>
        <time>2021-02-20T10:15:39+01:00</time>
      </trkpt>
      <trkpt lat="43.86256" lon="5.24346">
        <ele>228.8</ele>
        <time>2021-02-20T10:16:03+01:00</time>
      </trkpt>
      <trkpt lat="43.86262" lon="5.24314">
        <ele>228.7</ele>
        <time>2021-02-20T10:16:25+01:00</time>
      </trkpt>
      <trkpt lat="43.86261" lon="5.24283">
        <ele>227.8</ele>
        <time>2021-02-20T10:16:47+01:00</time>
      </trkpt>
      <trkpt lat="43.86256" lon="5.24251">
        <ele>226.1</ele>
        <time>2021-02-20T10:17:11+01:00</time>
      </trkpt>
      <trkpt lat="43.86265" lon="5.24222">
        <ele>227.4</ele>
        <time>2021-02-20T10:17:32+01:00</time>
      </trkpt>
      <trkpt lat="43.8626" lon="5.24191">
        <ele>226.1</ele>
        <time>2021-02-20T10:17:58+01:00</time>
      </trkpt>
      <trkpt lat="43.86239" lon="5.24178">
        <ele>221.6</ele>
        <time>2021-02-20T10:18:19+01:00</time>
      </trkpt>
      <trkpt lat="43.86218" lon="5.24163">
        <ele>216.8</ele>
        <time>2021-02-20T10:18:43+01:00</time>
      </trkpt>
      <trkpt lat="43.86197" lon="5.24149">
        <ele>212.7</ele>
        <time>2021-02-20T10:19:04+01:00</time>
      </trkpt>
      <trkpt lat="43.8618" lon="5.24129">
        <ele>209.5</ele>
        <time>2021-02-20T10:19:27+01:00</time>
      </trkpt>
      <trkpt lat="43.86165" lon="5.24103">
        <ele>207</ele>
        <time>2021-02-20T10:19:48+01:00</time>
      </trkpt>
      <trkpt lat="43.86151" lon="5.24078">
        <ele>205.6</ele>
        <time>2021-02-20T10:20:10+01:00</time>
      </trkpt>
      <trkpt lat="43.86135" lon="5.24055">
        <ele>205.5</ele>
        <time>2021-02-20T10:20:29+01:00</time>
      </trkpt>
      <trkpt lat="43.86118" lon="5.24035">
        <ele>204</ele>
        <time>2021-02-20T10:20:48+01:00</time>
      </trkpt>
      <trkpt lat="43.86099" lon="5.24016">
        <ele>201.1</ele>
        <time>2021-02-20T10:21:08+01:00</time>
      </trkpt>
      <trkpt lat="43.86077" lon="5.24">
        <ele>196.9</ele>
        <time>2021-02-20T10:21:41+01:00</time>
      </trkpt>
      <trkpt lat="43.86056" lon="5.23989">
        <ele>194.6</ele>
        <time>2021-02-20T10:22:14+01:00</time>
      </trkpt>
      <trkpt lat="43.86038" lon="5.23971">
        <ele>192.5</ele>
        <time>2021-02-20T10:22:34+01:00</time>
      </trkpt>
      <trkpt lat="43.86027" lon="5.23942">
        <ele>191.4</ele>
        <time>2021-02-20T10:22:52+01:00</time>
      </trkpt>
      <trkpt lat="43.86023" lon="5.23911">
        <ele>190.8</ele>
        <time>2021-02-20T10:23:12+01:00</time>
      </trkpt>
      <trkpt lat="43.86027" lon="5.2388">
        <ele>190.6</ele>
        <time>2021-02-20T10:23:32+01:00</time>
      </trkpt>
      <trkpt lat="43.86024" lon="5.23848">
        <ele>187.3</ele>
        <time>2021-02-20T10:23:55+01:00</time>
      </trkpt>
      <trkpt lat="43.86023" lon="5.23816">
        <ele>185.7</ele>
        <time>2021-02-20T10:24:11+01:00</time>
      </trkpt>
      <trkpt lat="43.8602" lon="5.23784">
        <ele>184.3</ele>
        <time>2021-02-20T10:24:31+01:00</time>
      </trkpt>
      <trkpt lat="43.86037" lon="5.23762">
        <ele>189.7</ele>
        <time>2021-02-20T10:25:35+01:00</time>
      </trkpt>
      <trkpt lat="43.86052" lon="5.23739">
        <ele>195.5</ele>
        <time>2021-02-20T10:26:25+01:00</time>
      </trkpt>
      <trkpt lat="43.86067" lon="5.23715">
        <ele>202.3</ele>
        <time>2021-02-20T10:28:10+01:00</time>
      </trkpt>
      <trkpt lat="43.86056" lon="5.23686">
        <ele>201.6</ele>
        <time>2021-02-20T10:33:02+01:00</time>
      </trkpt>
      <trkpt lat="43.86045" lon="5.23659">
        <ele>200.2</ele>
        <time>2021-02-20T10:33:44+01:00</time>
      </trkpt>
      <trkpt lat="43.86027" lon="5.23639">
        <ele>195.8</ele>
        <time>2021-02-20T10:34:12+01:00</time>
      </trkpt>
      <trkpt lat="43.86011" lon="5.23615">
        <ele>192.7</ele>
        <time>2021-02-20T10:34:43+01:00</time>
      </trkpt>
      <trkpt lat="43.86032" lon="5.23603">
        <ele>197</ele>
        <time>2021-02-20T10:37:00+01:00</time>
      </trkpt>
      <trkpt lat="43.86053" lon="5.23615">
        <ele>201.2</ele>
        <time>2021-02-20T10:37:23+01:00</time>
      </trkpt>
      <trkpt lat="43.86075" lon="5.23623">
        <ele>206.1</ele>
        <time>2021-02-20T10:38:19+01:00</time>
      </trkpt>
      <trkpt lat="43.86097" lon="5.23633">
        <ele>209.7</ele>
        <time>2021-02-20T10:38:46+01:00</time>
      </trkpt>
      <trkpt lat="43.86118" lon="5.23644">
        <ele>213</ele>
        <time>2021-02-20T10:39:15+01:00</time>
      </trkpt>
      <trkpt lat="43.86137" lon="5.23661">
        <ele>217.8</ele>
        <time>2021-02-20T10:40:02+01:00</time>
      </trkpt>
      <trkpt lat="43.86137" lon="5.23692">
        <ele>219.3</ele>
        <time>2021-02-20T10:41:29+01:00</time>
      </trkpt>
      <trkpt lat="43.86145" lon="5.23722">
        <ele>221.7</ele>
        <time>2021-02-20T10:42:40+01:00</time>
      </trkpt>
      <trkpt lat="43.86136" lon="5.23693">
        <ele>219.1</ele>
        <time>2021-02-20T10:44:44+01:00</time>
      </trkpt>
      <trkpt lat="43.86154" lon="5.23673">
        <ele>221.6</ele>
        <time>2021-02-20T10:46:07+01:00</time>
      </trkpt>
      <trkpt lat="43.86175" lon="5.23687">
        <ele>224</ele>
        <time>2021-02-20T10:46:39+01:00</time>
      </trkpt>
      <trkpt lat="43.86196" lon="5.23701">
        <ele>224.6</ele>
        <time>2021-02-20T10:47:07+01:00</time>
      </trkpt>
      <trkpt lat="43.8621" lon="5.23725">
        <ele>227.4</ele>
        <time>2021-02-20T10:47:42+01:00</time>
      </trkpt>
      <trkpt lat="43.86223" lon="5.23752">
        <ele>231.3</ele>
        <time>2021-02-20T10:48:05+01:00</time>
      </trkpt>
      <trkpt lat="43.86238" lon="5.23775">
        <ele>235.3</ele>
        <time>2021-02-20T10:48:30+01:00</time>
      </trkpt>
      <trkpt lat="43.86252" lon="5.23799">
        <ele>239.6</ele>
        <time>2021-02-20T10:49:00+01:00</time>
      </trkpt>
      <trkpt lat="43.86263" lon="5.23827">
        <ele>243</ele>
        <time>2021-02-20T10:49:31+01:00</time>
      </trkpt>
      <trkpt lat="43.86276" lon="5.23852">
        <ele>244.7</ele>
        <time>2021-02-20T10:50:00+01:00</time>
      </trkpt>
      <trkpt lat="43.86292" lon="5.23875">
        <ele>246</ele>
        <time>2021-02-20T10:50:27+01:00</time>
      </trkpt>
      <trkpt lat="43.86308" lon="5.23899">
        <ele>248</ele>
        <time>2021-02-20T10:51:02+01:00</time>
      </trkpt>
      <trkpt lat="43.8633" lon="5.23906">
        <ele>248.7</ele>
        <time>2021-02-20T10:52:07+01:00</time>
      </trkpt>
      <trkpt lat="43.86332" lon="5.23875">
        <ele>244.6</ele>
        <time>2021-02-20T10:52:50+01:00</time>
      </trkpt>
      <trkpt lat="43.86326" lon="5.23844">
        <ele>240.9</ele>
        <time>2021-02-20T10:53:44+01:00</time>
      </trkpt>
      <trkpt lat="43.86322" lon="5.23813">
        <ele>236.2</ele>
        <time>2021-02-20T10:54:08+01:00</time>
      </trkpt>
      <trkpt lat="43.86311" lon="5.23785">
        <ele>232.1</ele>
        <time>2021-02-20T10:54:29+01:00</time>
      </trkpt>
      <trkpt lat="43.86308" lon="5.23753">
        <ele>226.9</ele>
        <time>2021-02-20T10:55:02+01:00</time>
      </trkpt>
      <trkpt lat="43.86303" lon="5.23722">
        <ele>222.7</ele>
        <time>2021-02-20T10:55:30+01:00</time>
      </trkpt>
      <trkpt lat="43.86292" lon="5.23696">
        <ele>219.5</ele>
        <time>2021-02-20T10:55:59+01:00</time>
      </trkpt>
      <trkpt lat="43.86294" lon="5.23665">
        <ele>214.5</ele>
        <time>2021-02-20T10:56:34+01:00</time>
      </trkpt>
      <trkpt lat="43.86301" lon="5.23634">
        <ele>209.5</ele>
        <time>2021-02-20T10:57:05+01:00</time>
      </trkpt>
      <trkpt lat="43.86297" lon="5.23603">
        <ele>204.9</ele>
        <time>2021-02-20T10:57:42+01:00</time>
      </trkpt>
      <trkpt lat="43.86282" lon="5.23576">
        <ele>201.1</ele>
        <time>2021-02-20T10:58:21+01:00</time>
      </trkpt>
      <trkpt lat="43.86273" lon="5.23548">
        <ele>196.4</ele>
        <time>2021-02-20T10:58:52+01:00</time>
      </trkpt>
      <trkpt lat="43.86267" lon="5.23517">
        <ele>191.2</ele>
        <time>2021-02-20T10:59:25+01:00</time>
      </trkpt>
      <trkpt lat="43.86256" lon="5.2349">
        <ele>186.5</ele>
        <time>2021-02-20T10:59:49+01:00</time>
      </trkpt>
      <trkpt lat="43.86244" lon="5.23463">
        <ele>181.8</ele>
        <time>2021-02-20T11:00:22+01:00</time>
      </trkpt>
      <trkpt lat="43.86227" lon="5.23442">
        <ele>176.9</ele>
        <time>2021-02-20T11:00:47+01:00</time>
      </trkpt>
      <trkpt lat="43.86226" lon="5.23411">
        <ele>171.5</ele>
        <time>2021-02-20T11:01:20+01:00</time>
      </trkpt>
      <trkpt lat="43.86226" lon="5.23379">
        <ele>166.7</ele>
        <time>2021-02-20T11:03:47+01:00</time>
      </trkpt>
      <trkpt lat="43.86218" lon="5.23349">
        <ele>161.6</ele>
        <time>2021-02-20T11:04:24+01:00</time>
      </trkpt>
      <trkpt lat="43.86217" lon="5.23317">
        <ele>157.5</ele>
        <time>2021-02-20T11:04:58+01:00</time>
      </trkpt>
      <trkpt lat="43.86218" lon="5.23286">
        <ele>154.1</ele>
        <time>2021-02-20T11:05:40+01:00</time>
      </trkpt>
      <trkpt lat="43.86215" lon="5.23255">
        <ele>150.7</ele>
        <time>2021-02-20T11:06:16+01:00</time>
      </trkpt>
      <trkpt lat="43.86204" lon="5.23225">
        <ele>149.4</ele>
        <time>2021-02-20T11:07:16+01:00</time>
      </trkpt>
      <trkpt lat="43.86222" lon="5.23205">
        <ele>148.9</ele>
        <time>2021-02-20T11:07:41+01:00</time>
      </trkpt>
      <trkpt lat="43.86202" lon="5.23188">
        <ele>148.6</ele>
        <time>2021-02-20T11:08:14+01:00</time>
      </trkpt>
      <trkpt lat="43.86206" lon="5.23157">
        <ele>150.2</ele>
        <time>2021-02-20T11:13:30+01:00</time>
      </trkpt>
      <trkpt lat="43.86187" lon="5.2314">
        <ele>155</ele>
        <time>2021-02-20T11:14:19+01:00</time>
      </trkpt>
      <trkpt lat="43.86173" lon="5.23115">
        <ele>161.8</ele>
        <time>2021-02-20T11:14:46+01:00</time>
      </trkpt>
      <trkpt lat="43.86151" lon="5.23108">
        <ele>165</ele>
        <time>2021-02-20T11:16:10+01:00</time>
      </trkpt>
      <trkpt lat="43.86174" lon="5.23108">
        <ele>163.3</ele>
        <time>2021-02-20T11:16:51+01:00</time>
      </trkpt>
      <trkpt lat="43.86163" lon="5.23079">
        <ele>172.5</ele>
        <time>2021-02-20T11:18:28+01:00</time>
      </trkpt>
      <trkpt lat="43.86145" lon="5.23061">
        <ele>183.5</ele>
        <time>2021-02-20T11:20:29+01:00</time>
      </trkpt>
      <trkpt lat="43.86165" lon="5.23046">
        <ele>190.3</ele>
        <time>2021-02-20T11:22:00+01:00</time>
      </trkpt>
      <trkpt lat="43.86188" lon="5.23047">
        <ele>188.5</ele>
        <time>2021-02-20T11:22:32+01:00</time>
      </trkpt>
      <trkpt lat="43.86165" lon="5.23047">
        <ele>189.7</ele>
        <time>2021-02-20T11:26:50+01:00</time>
      </trkpt>
      <trkpt lat="43.86141" lon="5.23052">
        <ele>188.1</ele>
        <time>2021-02-20T11:27:21+01:00</time>
      </trkpt>
      <trkpt lat="43.86119" lon="5.23049">
        <ele>190.6</ele>
        <time>2021-02-20T11:28:28+01:00</time>
      </trkpt>
      <trkpt lat="43.86103" lon="5.23027">
        <ele>201.2</ele>
        <time>2021-02-20T11:29:21+01:00</time>
      </trkpt>
      <trkpt lat="43.86099" lon="5.22997">
        <ele>214</ele>
        <time>2021-02-20T11:31:44+01:00</time>
      </trkpt>
      <trkpt lat="43.86093" lon="5.22967">
        <ele>219.4</ele>
        <time>2021-02-20T11:32:48+01:00</time>
      </trkpt>
      <trkpt lat="43.86095" lon="5.22936">
        <ele>225.3</ele>
        <time>2021-02-20T11:33:33+01:00</time>
      </trkpt>
      <trkpt lat="43.86077" lon="5.22916">
        <ele>226.1</ele>
        <time>2021-02-20T11:34:44+01:00</time>
      </trkpt>
      <trkpt lat="43.86087" lon="5.22888">
        <ele>226.6</ele>
        <time>2021-02-20T11:35:12+01:00</time>
      </trkpt>
      <trkpt lat="43.86102" lon="5.22863">
        <ele>227</ele>
        <time>2021-02-20T11:35:38+01:00</time>
      </trkpt>
      <trkpt lat="43.86122" lon="5.22847">
        <ele>228.9</ele>
        <time>2021-02-20T11:35:59+01:00</time>
      </trkpt>
      <trkpt lat="43.86132" lon="5.22818">
        <ele>228.2</ele>
        <time>2021-02-20T11:36:21+01:00</time>
      </trkpt>
      <trkpt lat="43.86142" lon="5.22789">
        <ele>227</ele>
        <time>2021-02-20T11:36:42+01:00</time>
      </trkpt>
      <trkpt lat="43.86153" lon="5.2276">
        <ele>226.5</ele>
        <time>2021-02-20T11:37:02+01:00</time>
      </trkpt>
      <trkpt lat="43.86162" lon="5.2273">
        <ele>226.8</ele>
        <time>2021-02-20T11:37:26+01:00</time>
      </trkpt>
      <trkpt lat="43.86158" lon="5.22699">
        <ele>224.1</ele>
        <time>2021-02-20T11:38:01+01:00</time>
      </trkpt>
      <trkpt lat="43.86172" lon="5.22672">
        <ele>225.5</ele>
        <time>2021-02-20T11:39:27+01:00</time>
      </trkpt>
      <trkpt lat="43.86192" lon="5.22657">
        <ele>225.2</ele>
        <time>2021-02-20T11:40:09+01:00</time>
      </trkpt>
      <trkpt lat="43.86213" lon="5.22646">
        <ele>225.2</ele>
        <time>2021-02-20T11:40:46+01:00</time>
      </trkpt>
      <trkpt lat="43.86237" lon="5.22643">
        <ele>225.8</ele>
        <time>2021-02-20T11:41:27+01:00</time>
      </trkpt>
      <trkpt lat="43.86256" lon="5.22627">
        <ele>225.1</ele>
        <time>2021-02-20T11:41:51+01:00</time>
      </trkpt>
      <trkpt lat="43.86278" lon="5.22617">
        <ele>225.4</ele>
        <time>2021-02-20T11:42:26+01:00</time>
      </trkpt>
      <trkpt lat="43.863" lon="5.22604">
        <ele>225.5</ele>
        <time>2021-02-20T11:42:55+01:00</time>
      </trkpt>
      <trkpt lat="43.86321" lon="5.22591">
        <ele>225.7</ele>
        <time>2021-02-20T11:43:17+01:00</time>
      </trkpt>
      <trkpt lat="43.86341" lon="5.22578">
        <ele>225.6</ele>
        <time>2021-02-20T11:43:34+01:00</time>
      </trkpt>
      <trkpt lat="43.86362" lon="5.22566">
        <ele>224.6</ele>
        <time>2021-02-20T11:43:51+01:00</time>
      </trkpt>
      <trkpt lat="43.86383" lon="5.22552">
        <ele>223.3</ele>
        <time>2021-02-20T11:44:11+01:00</time>
      </trkpt>
      <trkpt lat="43.86404" lon="5.2254">
        <ele>222.5</ele>
        <time>2021-02-20T11:44:32+01:00</time>
      </trkpt>
      <trkpt lat="43.86425" lon="5.22527">
        <ele>221.6</ele>
        <time>2021-02-20T11:44:56+01:00</time>
      </trkpt>
      <trkpt lat="43.86446" lon="5.22513">
        <ele>221</ele>
        <time>2021-02-20T11:45:18+01:00</time>
      </trkpt>
      <trkpt lat="43.86465" lon="5.22494">
        <ele>219.7</ele>
        <time>2021-02-20T11:45:44+01:00</time>
      </trkpt>
      <trkpt lat="43.86483" lon="5.22475">
        <ele>218.6</ele>
        <time>2021-02-20T11:46:06+01:00</time>
      </trkpt>
      <trkpt lat="43.86503" lon="5.22459">
        <ele>218.5</ele>
        <time>2021-02-20T11:46:26+01:00</time>
      </trkpt>
      <trkpt lat="43.86505" lon="5.22427">
        <ele>214.2</ele>
        <time>2021-02-20T11:47:01+01:00</time>
      </trkpt>
      <trkpt lat="43.86495" lon="5.22399">
        <ele>209.7</ele>
        <time>2021-02-20T11:47:34+01:00</time>
      </trkpt>
      <trkpt lat="43.86487" lon="5.2237">
        <ele>206.4</ele>
        <time>2021-02-20T11:47:59+01:00</time>
      </trkpt>
      <trkpt lat="43.86476" lon="5.22341">
        <ele>203.4</ele>
        <time>2021-02-20T11:48:31+01:00</time>
      </trkpt>
      <trkpt lat="43.86453" lon="5.22338">
        <ele>202</ele>
        <time>2021-02-20T11:49:16+01:00</time>
      </trkpt>
      <trkpt lat="43.8646" lon="5.22308">
        <ele>204.8</ele>
        <time>2021-02-20T11:49:42+01:00</time>
      </trkpt>
      <trkpt lat="43.86477" lon="5.22285">
        <ele>207.1</ele>
        <time>2021-02-20T11:50:00+01:00</time>
      </trkpt>
      <trkpt lat="43.86495" lon="5.22265">
        <ele>208.3</ele>
        <time>2021-02-20T11:50:19+01:00</time>
      </trkpt>
      <trkpt lat="43.86511" lon="5.22242">
        <ele>210.9</ele>
        <time>2021-02-20T11:50:37+01:00</time>
      </trkpt>
      <trkpt lat="43.86529" lon="5.22222">
        <ele>214.4</ele>
        <time>2021-02-20T11:50:56+01:00</time>
      </trkpt>
      <trkpt lat="43.86548" lon="5.22205">
        <ele>216.5</ele>
        <time>2021-02-20T11:51:15+01:00</time>
      </trkpt>
      <trkpt lat="43.8657" lon="5.22192">
        <ele>217.5</ele>
        <time>2021-02-20T11:51:39+01:00</time>
      </trkpt>
      <trkpt lat="43.8659" lon="5.22177">
        <ele>218.3</ele>
        <time>2021-02-20T11:52:02+01:00</time>
      </trkpt>
      <trkpt lat="43.86612" lon="5.22167">
        <ele>219.3</ele>
        <time>2021-02-20T11:52:26+01:00</time>
      </trkpt>
      <trkpt lat="43.86635" lon="5.22158">
        <ele>220.6</ele>
        <time>2021-02-20T11:52:47+01:00</time>
      </trkpt>
      <trkpt lat="43.86657" lon="5.22148">
        <ele>221.9</ele>
        <time>2021-02-20T11:53:13+01:00</time>
      </trkpt>
      <trkpt lat="43.8668" lon="5.22145">
        <ele>222.8</ele>
        <time>2021-02-20T11:53:37+01:00</time>
      </trkpt>
      <trkpt lat="43.86702" lon="5.22152">
        <ele>222.8</ele>
        <time>2021-02-20T11:55:40+01:00</time>
      </trkpt>
      <trkpt lat="43.86725" lon="5.22148">
        <ele>224</ele>
        <time>2021-02-20T11:56:02+01:00</time>
      </trkpt>
      <trkpt lat="43.86749" lon="5.22146">
        <ele>225</ele>
        <time>2021-02-20T11:56:22+01:00</time>
      </trkpt>
      <trkpt lat="43.86772" lon="5.22148">
        <ele>225.7</ele>
        <time>2021-02-20T11:56:40+01:00</time>
      </trkpt>
      <trkpt lat="43.86796" lon="5.22146">
        <ele>226.9</ele>
        <time>2021-02-20T11:57:01+01:00</time>
      </trkpt>
      <trkpt lat="43.86818" lon="5.22135">
        <ele>228.6</ele>
        <time>2021-02-20T11:57:22+01:00</time>
      </trkpt>
      <trkpt lat="43.86804" lon="5.2211">
        <ele>230.1</ele>
        <time>2021-02-20T11:59:13+01:00</time>
      </trkpt>
      <trkpt lat="43.86782" lon="5.22101">
        <ele>230.2</ele>
        <time>2021-02-20T11:59:36+01:00</time>
      </trkpt>
      <trkpt lat="43.86763" lon="5.22083">
        <ele>231.3</ele>
        <time>2021-02-20T11:59:55+01:00</time>
      </trkpt>
      <trkpt lat="43.86749" lon="5.22057">
        <ele>232.6</ele>
        <time>2021-02-20T12:00:16+01:00</time>
      </trkpt>
      <trkpt lat="43.86738" lon="5.2203">
        <ele>234</ele>
        <time>2021-02-20T12:00:36+01:00</time>
      </trkpt>
      <trkpt lat="43.86721" lon="5.22008">
        <ele>235.2</ele>
        <time>2021-02-20T12:00:57+01:00</time>
      </trkpt>
      <trkpt lat="43.86707" lon="5.21983">
        <ele>235.2</ele>
        <time>2021-02-20T12:01:17+01:00</time>
      </trkpt>
      <trkpt lat="43.86692" lon="5.21958">
        <ele>234.6</ele>
        <time>2021-02-20T12:01:38+01:00</time>
      </trkpt>
      <trkpt lat="43.86683" lon="5.21929">
        <ele>234.2</ele>
        <time>2021-02-20T12:01:54+01:00</time>
      </trkpt>
      <trkpt lat="43.86682" lon="5.21897">
        <ele>233.8</ele>
        <time>2021-02-20T12:02:12+01:00</time>
      </trkpt>
      <trkpt lat="43.86677" lon="5.21866">
        <ele>233.5</ele>
        <time>2021-02-20T12:02:34+01:00</time>
      </trkpt>
      <trkpt lat="43.86678" lon="5.21834">
        <ele>233.3</ele>
        <time>2021-02-20T12:02:51+01:00</time>
      </trkpt>
      <trkpt lat="43.86679" lon="5.21801">
        <ele>233.4</ele>
        <time>2021-02-20T12:03:09+01:00</time>
      </trkpt>
      <trkpt lat="43.86682" lon="5.21769">
        <ele>233.6</ele>
        <time>2021-02-20T12:03:27+01:00</time>
      </trkpt>
      <trkpt lat="43.86683" lon="5.21737">
        <ele>234</ele>
        <time>2021-02-20T12:03:45+01:00</time>
      </trkpt>
      <trkpt lat="43.86687" lon="5.21705">
        <ele>234.6</ele>
        <time>2021-02-20T12:04:03+01:00</time>
      </trkpt>
      <trkpt lat="43.86689" lon="5.21673">
        <ele>235.2</ele>
        <time>2021-02-20T12:04:26+01:00</time>
      </trkpt>
      <trkpt lat="43.86689" lon="5.21641">
        <ele>233.9</ele>
        <time>2021-02-20T12:04:47+01:00</time>
      </trkpt>
      <trkpt lat="43.86693" lon="5.2161">
        <ele>232.6</ele>
        <time>2021-02-20T12:05:05+01:00</time>
      </trkpt>
      <trkpt lat="43.86696" lon="5.21578">
        <ele>231.3</ele>
        <time>2021-02-20T12:05:24+01:00</time>
      </trkpt>
      <trkpt lat="43.86703" lon="5.21546">
        <ele>231.2</ele>
        <time>2021-02-20T12:05:43+01:00</time>
      </trkpt>
      <trkpt lat="43.86702" lon="5.21514">
        <ele>230.2</ele>
        <time>2021-02-20T12:06:02+01:00</time>
      </trkpt>
      <trkpt lat="43.86706" lon="5.21482">
        <ele>229.8</ele>
        <time>2021-02-20T12:06:19+01:00</time>
      </trkpt>
      <trkpt lat="43.86707" lon="5.2145">
        <ele>229.1</ele>
        <time>2021-02-20T12:06:38+01:00</time>
      </trkpt>
      <trkpt lat="43.8671" lon="5.21419">
        <ele>228.7</ele>
        <time>2021-02-20T12:06:58+01:00</time>
      </trkpt>
      <trkpt lat="43.8671" lon="5.21386">
        <ele>227.3</ele>
        <time>2021-02-20T12:07:18+01:00</time>
      </trkpt>
      <trkpt lat="43.86709" lon="5.21354">
        <ele>225.9</ele>
        <time>2021-02-20T12:07:37+01:00</time>
      </trkpt>
      <trkpt lat="43.86708" lon="5.21323">
        <ele>224.3</ele>
        <time>2021-02-20T12:07:56+01:00</time>
      </trkpt>
      <trkpt lat="43.86709" lon="5.21291">
        <ele>222.2</ele>
        <time>2021-02-20T12:08:17+01:00</time>
      </trkpt>
      <trkpt lat="43.86719" lon="5.21262">
        <ele>221.2</ele>
        <time>2021-02-20T12:08:40+01:00</time>
      </trkpt>
      <trkpt lat="43.86727" lon="5.21232">
        <ele>219.9</ele>
        <time>2021-02-20T12:09:00+01:00</time>
      </trkpt>
      <trkpt lat="43.86738" lon="5.21205">
        <ele>218.9</ele>
        <time>2021-02-20T12:09:17+01:00</time>
      </trkpt>
      <trkpt lat="43.86752" lon="5.21179">
        <ele>218</ele>
        <time>2021-02-20T12:09:37+01:00</time>
      </trkpt>
      <trkpt lat="43.86765" lon="5.21152">
        <ele>218</ele>
        <time>2021-02-20T12:09:57+01:00</time>
      </trkpt>
      <trkpt lat="43.86779" lon="5.21128">
        <ele>218.4</ele>
        <time>2021-02-20T12:10:15+01:00</time>
      </trkpt>
      <trkpt lat="43.86795" lon="5.21105">
        <ele>218.7</ele>
        <time>2021-02-20T12:10:34+01:00</time>
      </trkpt>
      <trkpt lat="43.86811" lon="5.21082">
        <ele>218.6</ele>
        <time>2021-02-20T12:10:53+01:00</time>
      </trkpt>
      <trkpt lat="43.86827" lon="5.2106">
        <ele>219.3</ele>
        <time>2021-02-20T12:11:13+01:00</time>
      </trkpt>
      <trkpt lat="43.86848" lon="5.21043">
        <ele>220.4</ele>
        <time>2021-02-20T12:11:30+01:00</time>
      </trkpt>
      <trkpt lat="43.86868" lon="5.21031">
        <ele>221.5</ele>
        <time>2021-02-20T12:11:48+01:00</time>
      </trkpt>
      <trkpt lat="43.86889" lon="5.21016">
        <ele>222.5</ele>
        <time>2021-02-20T12:12:09+01:00</time>
      </trkpt>
      <trkpt lat="43.8691" lon="5.21004">
        <ele>223.7</ele>
        <time>2021-02-20T12:12:27+01:00</time>
      </trkpt>
      <trkpt lat="43.86932" lon="5.2099">
        <ele>224</ele>
        <time>2021-02-20T12:12:46+01:00</time>
      </trkpt>
      <trkpt lat="43.86955" lon="5.20983">
        <ele>224.5</ele>
        <time>2021-02-20T12:13:08+01:00</time>
      </trkpt>
      <trkpt lat="43.86977" lon="5.20976">
        <ele>224.9</ele>
        <time>2021-02-20T12:13:26+01:00</time>
      </trkpt>
      <trkpt lat="43.87" lon="5.20975">
        <ele>225.9</ele>
        <time>2021-02-20T12:13:47+01:00</time>
      </trkpt>
      <trkpt lat="43.87023" lon="5.20982">
        <ele>227.1</ele>
        <time>2021-02-20T12:14:06+01:00</time>
      </trkpt>
      <trkpt lat="43.87047" lon="5.20985">
        <ele>227.9</ele>
        <time>2021-02-20T12:14:24+01:00</time>
      </trkpt>
      <trkpt lat="43.8707" lon="5.20986">
        <ele>228.6</ele>
        <time>2021-02-20T12:14:47+01:00</time>
      </trkpt>
      <trkpt lat="43.87092" lon="5.20982">
        <ele>228.9</ele>
        <time>2021-02-20T12:15:02+01:00</time>
      </trkpt>
      <trkpt lat="43.87114" lon="5.20976">
        <ele>229.1</ele>
        <time>2021-02-20T12:15:18+01:00</time>
      </trkpt>
      <trkpt lat="43.87137" lon="5.20971">
        <ele>229.4</ele>
        <time>2021-02-20T12:15:37+01:00</time>
      </trkpt>
      <trkpt lat="43.8716" lon="5.20969">
        <ele>230</ele>
        <time>2021-02-20T12:15:55+01:00</time>
      </trkpt>
      <trkpt lat="43.87183" lon="5.20963">
        <ele>230.8</ele>
        <time>2021-02-20T12:16:11+01:00</time>
      </trkpt>
      <trkpt lat="43.87207" lon="5.20958">
        <ele>232.1</ele>
        <time>2021-02-20T12:16:31+01:00</time>
      </trkpt>
      <trkpt lat="43.87229" lon="5.20953">
        <ele>233.3</ele>
        <time>2021-02-20T12:16:48+01:00</time>
      </trkpt>
      <trkpt lat="43.87252" lon="5.20953">
        <ele>234.8</ele>
        <time>2021-02-20T12:17:06+01:00</time>
      </trkpt>
      <trkpt lat="43.87275" lon="5.20959">
        <ele>235.9</ele>
        <time>2021-02-20T12:17:25+01:00</time>
      </trkpt>
      <trkpt lat="43.87298" lon="5.20952">
        <ele>236.3</ele>
        <time>2021-02-20T12:17:42+01:00</time>
      </trkpt>
      <trkpt lat="43.8732" lon="5.20947">
        <ele>236.8</ele>
        <time>2021-02-20T12:18:00+01:00</time>
      </trkpt>
      <trkpt lat="43.87343" lon="5.20945">
        <ele>237.4</ele>
        <time>2021-02-20T12:18:18+01:00</time>
      </trkpt>
      <trkpt lat="43.87367" lon="5.20942">
        <ele>237.9</ele>
        <time>2021-02-20T12:18:38+01:00</time>
      </trkpt>
      <trkpt lat="43.8739" lon="5.20941">
        <ele>238.6</ele>
        <time>2021-02-20T12:18:55+01:00</time>
      </trkpt>
      <trkpt lat="43.87414" lon="5.20939">
        <ele>239.2</ele>
        <time>2021-02-20T12:19:11+01:00</time>
      </trkpt>
      <trkpt lat="43.87437" lon="5.20934">
        <ele>239.2</ele>
        <time>2021-02-20T12:19:28+01:00</time>
      </trkpt>
      <trkpt lat="43.87461" lon="5.20931">
        <ele>239.1</ele>
        <time>2021-02-20T12:19:47+01:00</time>
      </trkpt>
      <trkpt lat="43.87484" lon="5.20929">
        <ele>239.1</ele>
        <time>2021-02-20T12:20:05+01:00</time>
      </trkpt>
      <trkpt lat="43.87507" lon="5.20928">
        <ele>239.4</ele>
        <time>2021-02-20T12:20:22+01:00</time>
      </trkpt>
      <trkpt lat="43.8753" lon="5.20925">
        <ele>240.2</ele>
        <time>2021-02-20T12:20:40+01:00</time>
      </trkpt>
      <trkpt lat="43.87553" lon="5.20922">
        <ele>241</ele>
        <time>2021-02-20T12:21:00+01:00</time>
      </trkpt>
      <trkpt lat="43.87576" lon="5.2092">
        <ele>241.9</ele>
        <time>2021-02-20T12:21:16+01:00</time>
      </trkpt>
      <trkpt lat="43.87599" lon="5.20927">
        <ele>243.7</ele>
        <time>2021-02-20T12:21:39+01:00</time>
      </trkpt>
      <trkpt lat="43.87622" lon="5.20929">
        <ele>245.1</ele>
        <time>2021-02-20T12:21:58+01:00</time>
      </trkpt>
      <trkpt lat="43.87644" lon="5.20934">
        <ele>246.5</ele>
        <time>2021-02-20T12:22:12+01:00</time>
      </trkpt>
      <trkpt lat="43.87656" lon="5.20961">
        <ele>248.2</ele>
        <time>2021-02-20T12:22:30+01:00</time>
      </trkpt>
      <trkpt lat="43.87662" lon="5.20992">
        <ele>249.6</ele>
        <time>2021-02-20T12:22:46+01:00</time>
      </trkpt>
      <trkpt lat="43.87671" lon="5.21021">
        <ele>248.7</ele>
        <time>2021-02-20T12:23:06+01:00</time>
      </trkpt>
      <trkpt lat="43.87679" lon="5.2105">
        <ele>246.6</ele>
        <time>2021-02-20T12:23:22+01:00</time>
      </trkpt>
      <trkpt lat="43.87694" lon="5.21073">
        <ele>244.2</ele>
        <time>2021-02-20T12:23:39+01:00</time>
      </trkpt>
      <trkpt lat="43.87713" lon="5.21094">
        <ele>240.2</ele>
        <time>2021-02-20T12:23:57+01:00</time>
      </trkpt>
      <trkpt lat="43.87732" lon="5.21112">
        <ele>235.2</ele>
        <time>2021-02-20T12:24:15+01:00</time>
      </trkpt>
      <trkpt lat="43.87755" lon="5.21123">
        <ele>231.8</ele>
        <time>2021-02-20T12:24:33+01:00</time>
      </trkpt>
      <trkpt lat="43.87778" lon="5.21127">
        <ele>230.5</ele>
        <time>2021-02-20T12:24:48+01:00</time>
      </trkpt>
      <trkpt lat="43.87801" lon="5.21126">
        <ele>230.2</ele>
        <time>2021-02-20T12:25:05+01:00</time>
      </trkpt>
      <trkpt lat="43.87823" lon="5.21134">
        <ele>228.4</ele>
        <time>2021-02-20T12:25:23+01:00</time>
      </trkpt>
      <trkpt lat="43.87845" lon="5.21144">
        <ele>226.9</ele>
        <time>2021-02-20T12:25:40+01:00</time>
      </trkpt>
      <trkpt lat="43.87867" lon="5.21155">
        <ele>225.4</ele>
        <time>2021-02-20T12:25:57+01:00</time>
      </trkpt>
      <trkpt lat="43.87888" lon="5.21164">
        <ele>224.3</ele>
        <time>2021-02-20T12:26:17+01:00</time>
      </trkpt>
      <trkpt lat="43.87911" lon="5.21169">
        <ele>223.8</ele>
        <time>2021-02-20T12:26:33+01:00</time>
      </trkpt>
      <trkpt lat="43.87933" lon="5.2118">
        <ele>222.9</ele>
        <time>2021-02-20T12:26:49+01:00</time>
      </trkpt>
      <trkpt lat="43.87953" lon="5.21196">
        <ele>221.8</ele>
        <time>2021-02-20T12:27:10+01:00</time>
      </trkpt>
      <trkpt lat="43.87973" lon="5.21212">
        <ele>221.1</ele>
        <time>2021-02-20T12:27:27+01:00</time>
      </trkpt>
      <trkpt lat="43.87993" lon="5.21227">
        <ele>220.9</ele>
        <time>2021-02-20T12:27:43+01:00</time>
      </trkpt>
      <trkpt lat="43.88013" lon="5.21244">
        <ele>220.6</ele>
        <time>2021-02-20T12:28:03+01:00</time>
      </trkpt>
      <trkpt lat="43.88034" lon="5.21255">
        <ele>220.4</ele>
        <time>2021-02-20T12:28:19+01:00</time>
      </trkpt>
      <trkpt lat="43.88056" lon="5.21268">
        <ele>219.8</ele>
        <time>2021-02-20T12:28:37+01:00</time>
      </trkpt>
      <trkpt lat="43.88079" lon="5.21277">
        <ele>219.6</ele>
        <time>2021-02-20T12:29:13+01:00</time>
      </trkpt>
      <trkpt lat="43.88102" lon="5.21286">
        <ele>220.3</ele>
        <time>2021-02-20T12:29:34+01:00</time>
      </trkpt>
      <trkpt lat="43.88123" lon="5.21297">
        <ele>221.3</ele>
        <time>2021-02-20T12:29:51+01:00</time>
      </trkpt>
      <trkpt lat="43.88145" lon="5.21308">
        <ele>222.7</ele>
        <time>2021-02-20T12:30:11+01:00</time>
      </trkpt>
      <trkpt lat="43.88162" lon="5.21329">
        <ele>223.7</ele>
        <time>2021-02-20T12:30:30+01:00</time>
      </trkpt>
      <trkpt lat="43.8818" lon="5.21349">
        <ele>223.7</ele>
        <time>2021-02-20T12:30:48+01:00</time>
      </trkpt>
      <trkpt lat="43.88193" lon="5.21376">
        <ele>222.6</ele>
        <time>2021-02-20T12:31:05+01:00</time>
      </trkpt>
      <trkpt lat="43.88203" lon="5.21404">
        <ele>221.4</ele>
        <time>2021-02-20T12:31:23+01:00</time>
      </trkpt>
      <trkpt lat="43.88216" lon="5.21431">
        <ele>220.9</ele>
        <time>2021-02-20T12:31:42+01:00</time>
      </trkpt>
      <trkpt lat="43.88205" lon="5.21403">
        <ele>221.7</ele>
        <time>2021-02-20T13:25:04+01:00</time>
      </trkpt>
      <trkpt lat="43.88194" lon="5.21375">
        <ele>222.8</ele>
        <time>2021-02-20T13:25:31+01:00</time>
      </trkpt>
      <trkpt lat="43.88184" lon="5.21347">
        <ele>224.1</ele>
        <time>2021-02-20T13:26:56+01:00</time>
      </trkpt>
      <trkpt lat="43.88165" lon="5.21329">
        <ele>223.9</ele>
        <time>2021-02-20T13:27:17+01:00</time>
      </trkpt>
      <trkpt lat="43.88147" lon="5.21308">
        <ele>222.8</ele>
        <time>2021-02-20T13:27:37+01:00</time>
      </trkpt>
      <trkpt lat="43.88139" lon="5.21279">
        <ele>223.4</ele>
        <time>2021-02-20T13:30:57+01:00</time>
      </trkpt>
      <trkpt lat="43.88129" lon="5.2125">
        <ele>224.2</ele>
        <time>2021-02-20T13:31:20+01:00</time>
      </trkpt>
      <trkpt lat="43.88122" lon="5.21221">
        <ele>226</ele>
        <time>2021-02-20T13:32:09+01:00</time>
      </trkpt>
      <trkpt lat="43.88114" lon="5.21191">
        <ele>228.1</ele>
        <time>2021-02-20T13:32:31+01:00</time>
      </trkpt>
      <trkpt lat="43.88105" lon="5.21162">
        <ele>230.5</ele>
        <time>2021-02-20T13:32:55+01:00</time>
      </trkpt>
      <trkpt lat="43.88098" lon="5.21132">
        <ele>233.6</ele>
        <time>2021-02-20T13:33:21+01:00</time>
      </trkpt>
      <trkpt lat="43.8809" lon="5.21103">
        <ele>236.3</ele>
        <time>2021-02-20T13:33:43+01:00</time>
      </trkpt>
      <trkpt lat="43.88079" lon="5.21076">
        <ele>238.5</ele>
        <time>2021-02-20T13:34:17+01:00</time>
      </trkpt>
      <trkpt lat="43.8807" lon="5.21046">
        <ele>241.6</ele>
        <time>2021-02-20T13:34:39+01:00</time>
      </trkpt>
      <trkpt lat="43.88065" lon="5.21015">
        <ele>245.3</ele>
        <time>2021-02-20T13:35:00+01:00</time>
      </trkpt>
      <trkpt lat="43.88067" lon="5.20983">
        <ele>247.6</ele>
        <time>2021-02-20T13:35:22+01:00</time>
      </trkpt>
      <trkpt lat="43.88078" lon="5.20955">
        <ele>248.1</ele>
        <time>2021-02-20T13:35:44+01:00</time>
      </trkpt>
      <trkpt lat="43.88085" lon="5.20924">
        <ele>248.9</ele>
        <time>2021-02-20T13:36:05+01:00</time>
      </trkpt>
      <trkpt lat="43.88092" lon="5.20894">
        <ele>248</ele>
        <time>2021-02-20T13:37:08+01:00</time>
      </trkpt>
      <trkpt lat="43.88085" lon="5.20924">
        <ele>248.9</ele>
        <time>2021-02-20T13:38:15+01:00</time>
      </trkpt>
      <trkpt lat="43.88076" lon="5.20954">
        <ele>248.2</ele>
        <time>2021-02-20T13:38:41+01:00</time>
      </trkpt>
      <trkpt lat="43.88065" lon="5.20982">
        <ele>247.7</ele>
        <time>2021-02-20T13:39:01+01:00</time>
      </trkpt>
      <trkpt lat="43.88063" lon="5.21013">
        <ele>245.5</ele>
        <time>2021-02-20T13:39:19+01:00</time>
      </trkpt>
      <trkpt lat="43.88072" lon="5.21043">
        <ele>242</ele>
        <time>2021-02-20T13:39:34+01:00</time>
      </trkpt>
      <trkpt lat="43.88079" lon="5.21073">
        <ele>238.8</ele>
        <time>2021-02-20T13:39:51+01:00</time>
      </trkpt>
      <trkpt lat="43.88088" lon="5.21102">
        <ele>236.4</ele>
        <time>2021-02-20T13:40:10+01:00</time>
      </trkpt>
      <trkpt lat="43.88094" lon="5.21132">
        <ele>233.5</ele>
        <time>2021-02-20T13:40:28+01:00</time>
      </trkpt>
      <trkpt lat="43.88102" lon="5.21162">
        <ele>230.6</ele>
        <time>2021-02-20T13:40:46+01:00</time>
      </trkpt>
      <trkpt lat="43.88111" lon="5.2119">
        <ele>228.1</ele>
        <time>2021-02-20T13:41:03+01:00</time>
      </trkpt>
      <trkpt lat="43.88119" lon="5.21221">
        <ele>225.9</ele>
        <time>2021-02-20T13:41:21+01:00</time>
      </trkpt>
      <trkpt lat="43.88114" lon="5.21251">
        <ele>223.4</ele>
        <time>2021-02-20T13:41:42+01:00</time>
      </trkpt>
      <trkpt lat="43.8811" lon="5.21284">
        <ele>221.1</ele>
        <time>2021-02-20T13:42:01+01:00</time>
      </trkpt>
      <trkpt lat="43.88087" lon="5.2128">
        <ele>219.8</ele>
        <time>2021-02-20T13:42:21+01:00</time>
      </trkpt>
      <trkpt lat="43.88065" lon="5.21272">
        <ele>219.6</ele>
        <time>2021-02-20T13:42:51+01:00</time>
      </trkpt>
      <trkpt lat="43.88043" lon="5.2126">
        <ele>220.1</ele>
        <time>2021-02-20T13:43:11+01:00</time>
      </trkpt>
      <trkpt lat="43.88021" lon="5.21249">
        <ele>220.6</ele>
        <time>2021-02-20T13:43:31+01:00</time>
      </trkpt>
      <trkpt lat="43.88001" lon="5.21234">
        <ele>220.8</ele>
        <time>2021-02-20T13:43:50+01:00</time>
      </trkpt>
      <trkpt lat="43.87979" lon="5.21222">
        <ele>220.7</ele>
        <time>2021-02-20T13:44:49+01:00</time>
      </trkpt>
      <trkpt lat="43.8796" lon="5.21205">
        <ele>221.3</ele>
        <time>2021-02-20T13:45:09+01:00</time>
      </trkpt>
      <trkpt lat="43.8794" lon="5.21189">
        <ele>222.1</ele>
        <time>2021-02-20T13:45:27+01:00</time>
      </trkpt>
      <trkpt lat="43.87919" lon="5.21178">
        <ele>222.9</ele>
        <time>2021-02-20T13:45:45+01:00</time>
      </trkpt>
      <trkpt lat="43.87897" lon="5.21168">
        <ele>223.9</ele>
        <time>2021-02-20T13:46:07+01:00</time>
      </trkpt>
      <trkpt lat="43.87874" lon="5.21162">
        <ele>224.6</ele>
        <time>2021-02-20T13:46:26+01:00</time>
      </trkpt>
      <trkpt lat="43.87852" lon="5.21153">
        <ele>225.8</ele>
        <time>2021-02-20T13:46:46+01:00</time>
      </trkpt>
      <trkpt lat="43.87831" lon="5.2114">
        <ele>227.6</ele>
        <time>2021-02-20T13:47:04+01:00</time>
      </trkpt>
      <trkpt lat="43.87808" lon="5.2113">
        <ele>229.3</ele>
        <time>2021-02-20T13:47:28+01:00</time>
      </trkpt>
      <trkpt lat="43.87786" lon="5.2113">
        <ele>229.9</ele>
        <time>2021-02-20T13:47:48+01:00</time>
      </trkpt>
      <trkpt lat="43.87763" lon="5.21128">
        <ele>230.6</ele>
        <time>2021-02-20T13:48:09+01:00</time>
      </trkpt>
      <trkpt lat="43.87741" lon="5.21117">
        <ele>233.8</ele>
        <time>2021-02-20T13:48:31+01:00</time>
      </trkpt>
      <trkpt lat="43.87721" lon="5.21102">
        <ele>238</ele>
        <time>2021-02-20T13:50:04+01:00</time>
      </trkpt>
      <trkpt lat="43.87702" lon="5.21083">
        <ele>242.8</ele>
        <time>2021-02-20T13:50:43+01:00</time>
      </trkpt>
      <trkpt lat="43.87684" lon="5.21064">
        <ele>245.4</ele>
        <time>2021-02-20T13:51:09+01:00</time>
      </trkpt>
      <trkpt lat="43.87673" lon="5.21036">
        <ele>247.7</ele>
        <time>2021-02-20T13:51:31+01:00</time>
      </trkpt>
      <trkpt lat="43.87661" lon="5.2101">
        <ele>249.4</ele>
        <time>2021-02-20T13:51:52+01:00</time>
      </trkpt>
      <trkpt lat="43.87654" lon="5.2098">
        <ele>249</ele>
        <time>2021-02-20T13:52:14+01:00</time>
      </trkpt>
      <trkpt lat="43.87646" lon="5.2095">
        <ele>247.4</ele>
        <time>2021-02-20T13:52:35+01:00</time>
      </trkpt>
      <trkpt lat="43.87627" lon="5.20932">
        <ele>245.5</ele>
        <time>2021-02-20T13:52:58+01:00</time>
      </trkpt>
      <trkpt lat="43.87604" lon="5.20929">
        <ele>244.1</ele>
        <time>2021-02-20T13:53:18+01:00</time>
      </trkpt>
      <trkpt lat="43.87581" lon="5.20927">
        <ele>242.7</ele>
        <time>2021-02-20T13:53:36+01:00</time>
      </trkpt>
      <trkpt lat="43.87558" lon="5.20922">
        <ele>241.2</ele>
        <time>2021-02-20T13:53:55+01:00</time>
      </trkpt>
      <trkpt lat="43.87536" lon="5.20925">
        <ele>240.4</ele>
        <time>2021-02-20T13:54:14+01:00</time>
      </trkpt>
      <trkpt lat="43.87511" lon="5.20928">
        <ele>239.6</ele>
        <time>2021-02-20T13:54:38+01:00</time>
      </trkpt>
      <trkpt lat="43.87488" lon="5.20931">
        <ele>239.3</ele>
        <time>2021-02-20T13:54:58+01:00</time>
      </trkpt>
      <trkpt lat="43.87466" lon="5.20935">
        <ele>239.5</ele>
        <time>2021-02-20T13:55:18+01:00</time>
      </trkpt>
      <trkpt lat="43.87443" lon="5.20938">
        <ele>239.5</ele>
        <time>2021-02-20T13:55:41+01:00</time>
      </trkpt>
      <trkpt lat="43.8742" lon="5.2094">
        <ele>239.4</ele>
        <time>2021-02-20T13:56:01+01:00</time>
      </trkpt>
      <trkpt lat="43.87396" lon="5.20941">
        <ele>238.8</ele>
        <time>2021-02-20T13:56:22+01:00</time>
      </trkpt>
      <trkpt lat="43.87372" lon="5.20943">
        <ele>238.2</ele>
        <time>2021-02-20T13:56:42+01:00</time>
      </trkpt>
      <trkpt lat="43.87349" lon="5.20947">
        <ele>237.7</ele>
        <time>2021-02-20T13:57:01+01:00</time>
      </trkpt>
      <trkpt lat="43.87326" lon="5.20949">
        <ele>237.1</ele>
        <time>2021-02-20T13:57:24+01:00</time>
      </trkpt>
      <trkpt lat="43.87304" lon="5.20954">
        <ele>236.7</ele>
        <time>2021-02-20T13:57:44+01:00</time>
      </trkpt>
      <trkpt lat="43.87281" lon="5.20961">
        <ele>236.3</ele>
        <time>2021-02-20T13:58:04+01:00</time>
      </trkpt>
      <trkpt lat="43.87258" lon="5.20959">
        <ele>235.3</ele>
        <time>2021-02-20T13:58:27+01:00</time>
      </trkpt>
      <trkpt lat="43.87235" lon="5.20955">
        <ele>233.8</ele>
        <time>2021-02-20T13:58:49+01:00</time>
      </trkpt>
      <trkpt lat="43.87213" lon="5.2096">
        <ele>232.6</ele>
        <time>2021-02-20T13:59:08+01:00</time>
      </trkpt>
      <trkpt lat="43.87189" lon="5.20963">
        <ele>231.3</ele>
        <time>2021-02-20T13:59:27+01:00</time>
      </trkpt>
      <trkpt lat="43.87167" lon="5.2097">
        <ele>230.2</ele>
        <time>2021-02-20T13:59:47+01:00</time>
      </trkpt>
      <trkpt lat="43.87144" lon="5.20974">
        <ele>229.8</ele>
        <time>2021-02-20T14:00:08+01:00</time>
      </trkpt>
      <trkpt lat="43.87121" lon="5.20978">
        <ele>229.4</ele>
        <time>2021-02-20T14:00:24+01:00</time>
      </trkpt>
      <trkpt lat="43.87099" lon="5.20984">
        <ele>229.2</ele>
        <time>2021-02-20T14:00:43+01:00</time>
      </trkpt>
      <trkpt lat="43.87076" lon="5.20986">
        <ele>228.8</ele>
        <time>2021-02-20T14:01:01+01:00</time>
      </trkpt>
      <trkpt lat="43.87054" lon="5.20988">
        <ele>228.3</ele>
        <time>2021-02-20T14:01:20+01:00</time>
      </trkpt>
      <trkpt lat="43.8703" lon="5.20985">
        <ele>227.5</ele>
        <time>2021-02-20T14:01:39+01:00</time>
      </trkpt>
      <trkpt lat="43.87007" lon="5.20982">
        <ele>226.6</ele>
        <time>2021-02-20T14:01:57+01:00</time>
      </trkpt>
      <trkpt lat="43.86984" lon="5.20982">
        <ele>225.7</ele>
        <time>2021-02-20T14:02:15+01:00</time>
      </trkpt>
      <trkpt lat="43.86962" lon="5.20988">
        <ele>225.2</ele>
        <time>2021-02-20T14:02:35+01:00</time>
      </trkpt>
      <trkpt lat="43.86939" lon="5.20993">
        <ele>224.5</ele>
        <time>2021-02-20T14:02:53+01:00</time>
      </trkpt>
      <trkpt lat="43.86917" lon="5.21004">
        <ele>224.1</ele>
        <time>2021-02-20T14:03:12+01:00</time>
      </trkpt>
      <trkpt lat="43.86896" lon="5.21019">
        <ele>223</ele>
        <time>2021-02-20T14:03:30+01:00</time>
      </trkpt>
      <trkpt lat="43.86876" lon="5.21033">
        <ele>221.9</ele>
        <time>2021-02-20T14:03:49+01:00</time>
      </trkpt>
      <trkpt lat="43.86855" lon="5.21044">
        <ele>220.8</ele>
        <time>2021-02-20T14:04:06+01:00</time>
      </trkpt>
      <trkpt lat="43.86835" lon="5.21061">
        <ele>219.8</ele>
        <time>2021-02-20T14:04:25+01:00</time>
      </trkpt>
      <trkpt lat="43.86815" lon="5.21075">
        <ele>218.8</ele>
        <time>2021-02-20T14:04:44+01:00</time>
      </trkpt>
      <trkpt lat="43.86798" lon="5.21098">
        <ele>218.5</ele>
        <time>2021-02-20T14:05:03+01:00</time>
      </trkpt>
      <trkpt lat="43.86782" lon="5.21122">
        <ele>218.4</ele>
        <time>2021-02-20T14:05:23+01:00</time>
      </trkpt>
      <trkpt lat="43.86768" lon="5.21146">
        <ele>218.1</ele>
        <time>2021-02-20T14:06:35+01:00</time>
      </trkpt>
      <trkpt lat="43.86754" lon="5.21171">
        <ele>217.7</ele>
        <time>2021-02-20T14:06:57+01:00</time>
      </trkpt>
      <trkpt lat="43.86739" lon="5.21195">
        <ele>218.3</ele>
        <time>2021-02-20T14:07:18+01:00</time>
      </trkpt>
      <trkpt lat="43.86727" lon="5.21222">
        <ele>219.2</ele>
        <time>2021-02-20T14:07:38+01:00</time>
      </trkpt>
      <trkpt lat="43.86719" lon="5.21252">
        <ele>220.5</ele>
        <time>2021-02-20T14:08:00+01:00</time>
      </trkpt>
      <trkpt lat="43.86709" lon="5.2128">
        <ele>221.5</ele>
        <time>2021-02-20T14:08:22+01:00</time>
      </trkpt>
      <trkpt lat="43.86707" lon="5.21312">
        <ele>223.5</ele>
        <time>2021-02-20T14:08:53+01:00</time>
      </trkpt>
      <trkpt lat="43.86707" lon="5.21344">
        <ele>225.3</ele>
        <time>2021-02-20T14:09:17+01:00</time>
      </trkpt>
      <trkpt lat="43.86708" lon="5.21376">
        <ele>226.7</ele>
        <time>2021-02-20T14:09:39+01:00</time>
      </trkpt>
      <trkpt lat="43.86708" lon="5.21408">
        <ele>228.1</ele>
        <time>2021-02-20T14:10:06+01:00</time>
      </trkpt>
      <trkpt lat="43.86706" lon="5.21439">
        <ele>228.8</ele>
        <time>2021-02-20T14:10:27+01:00</time>
      </trkpt>
      <trkpt lat="43.86705" lon="5.21471">
        <ele>229.4</ele>
        <time>2021-02-20T14:10:50+01:00</time>
      </trkpt>
      <trkpt lat="43.86704" lon="5.21504">
        <ele>230</ele>
        <time>2021-02-20T14:11:11+01:00</time>
      </trkpt>
      <trkpt lat="43.86702" lon="5.21536">
        <ele>230.8</ele>
        <time>2021-02-20T14:11:31+01:00</time>
      </trkpt>
      <trkpt lat="43.86691" lon="5.21564">
        <ele>230.3</ele>
        <time>2021-02-20T14:11:53+01:00</time>
      </trkpt>
      <trkpt lat="43.86686" lon="5.21596">
        <ele>231</ele>
        <time>2021-02-20T14:12:15+01:00</time>
      </trkpt>
      <trkpt lat="43.86687" lon="5.21628">
        <ele>233</ele>
        <time>2021-02-20T14:12:36+01:00</time>
      </trkpt>
      <trkpt lat="43.86686" lon="5.2166">
        <ele>234.8</ele>
        <time>2021-02-20T14:13:06+01:00</time>
      </trkpt>
      <trkpt lat="43.86691" lon="5.21692">
        <ele>235.1</ele>
        <time>2021-02-20T14:13:29+01:00</time>
      </trkpt>
      <trkpt lat="43.86685" lon="5.21723">
        <ele>234.3</ele>
        <time>2021-02-20T14:17:42+01:00</time>
      </trkpt>
      <trkpt lat="43.86682" lon="5.21755">
        <ele>233.7</ele>
        <time>2021-02-20T14:18:04+01:00</time>
      </trkpt>
      <trkpt lat="43.86679" lon="5.21787">
        <ele>233.4</ele>
        <time>2021-02-20T14:18:23+01:00</time>
      </trkpt>
      <trkpt lat="43.86678" lon="5.21819">
        <ele>233.3</ele>
        <time>2021-02-20T14:18:43+01:00</time>
      </trkpt>
      <trkpt lat="43.86678" lon="5.21852">
        <ele>233.4</ele>
        <time>2021-02-20T14:19:02+01:00</time>
      </trkpt>
      <trkpt lat="43.86684" lon="5.21882">
        <ele>233.8</ele>
        <time>2021-02-20T14:20:24+01:00</time>
      </trkpt>
      <trkpt lat="43.86682" lon="5.21913">
        <ele>234</ele>
        <time>2021-02-20T14:21:05+01:00</time>
      </trkpt>
      <trkpt lat="43.86685" lon="5.21945">
        <ele>234.4</ele>
        <time>2021-02-20T14:21:31+01:00</time>
      </trkpt>
      <trkpt lat="43.86699" lon="5.21969">
        <ele>234.9</ele>
        <time>2021-02-20T14:21:55+01:00</time>
      </trkpt>
      <trkpt lat="43.86713" lon="5.21994">
        <ele>235.4</ele>
        <time>2021-02-20T14:22:18+01:00</time>
      </trkpt>
      <trkpt lat="43.86728" lon="5.22018">
        <ele>234.6</ele>
        <time>2021-02-20T14:22:39+01:00</time>
      </trkpt>
      <trkpt lat="43.86743" lon="5.22044">
        <ele>233.2</ele>
        <time>2021-02-20T14:23:02+01:00</time>
      </trkpt>
      <trkpt lat="43.86755" lon="5.22072">
        <ele>231.8</ele>
        <time>2021-02-20T14:23:22+01:00</time>
      </trkpt>
      <trkpt lat="43.86773" lon="5.22092">
        <ele>230.8</ele>
        <time>2021-02-20T14:23:41+01:00</time>
      </trkpt>
      <trkpt lat="43.86794" lon="5.22105">
        <ele>230.2</ele>
        <time>2021-02-20T14:24:00+01:00</time>
      </trkpt>
      <trkpt lat="43.86816" lon="5.22113">
        <ele>230.3</ele>
        <time>2021-02-20T14:24:21+01:00</time>
      </trkpt>
      <trkpt lat="43.86808" lon="5.22142">
        <ele>227.7</ele>
        <time>2021-02-20T14:24:52+01:00</time>
      </trkpt>
      <trkpt lat="43.86786" lon="5.22153">
        <ele>225.9</ele>
        <time>2021-02-20T14:25:13+01:00</time>
      </trkpt>
      <trkpt lat="43.86763" lon="5.22154">
        <ele>224.8</ele>
        <time>2021-02-20T14:25:32+01:00</time>
      </trkpt>
      <trkpt lat="43.8674" lon="5.22153">
        <ele>224</ele>
        <time>2021-02-20T14:25:54+01:00</time>
      </trkpt>
      <trkpt lat="43.86717" lon="5.22155">
        <ele>223</ele>
        <time>2021-02-20T14:26:12+01:00</time>
      </trkpt>
      <trkpt lat="43.86694" lon="5.22152">
        <ele>222.5</ele>
        <time>2021-02-20T14:26:34+01:00</time>
      </trkpt>
      <trkpt lat="43.86671" lon="5.22151">
        <ele>221.9</ele>
        <time>2021-02-20T14:26:52+01:00</time>
      </trkpt>
      <trkpt lat="43.86649" lon="5.22157">
        <ele>220.9</ele>
        <time>2021-02-20T14:27:15+01:00</time>
      </trkpt>
      <trkpt lat="43.86627" lon="5.22165">
        <ele>219.7</ele>
        <time>2021-02-20T14:27:35+01:00</time>
      </trkpt>
      <trkpt lat="43.86605" lon="5.22173">
        <ele>218.9</ele>
        <time>2021-02-20T14:27:53+01:00</time>
      </trkpt>
      <trkpt lat="43.86582" lon="5.22183">
        <ele>217.7</ele>
        <time>2021-02-20T14:28:13+01:00</time>
      </trkpt>
      <trkpt lat="43.86563" lon="5.222">
        <ele>216.8</ele>
        <time>2021-02-20T14:28:30+01:00</time>
      </trkpt>
      <trkpt lat="43.86542" lon="5.22216">
        <ele>215.1</ele>
        <time>2021-02-20T14:28:53+01:00</time>
      </trkpt>
      <trkpt lat="43.86522" lon="5.22231">
        <ele>212.9</ele>
        <time>2021-02-20T14:29:13+01:00</time>
      </trkpt>
      <trkpt lat="43.86502" lon="5.22247">
        <ele>209.7</ele>
        <time>2021-02-20T14:29:35+01:00</time>
      </trkpt>
      <trkpt lat="43.86485" lon="5.2227">
        <ele>208.2</ele>
        <time>2021-02-20T14:29:59+01:00</time>
      </trkpt>
      <trkpt lat="43.8647" lon="5.22294">
        <ele>206.3</ele>
        <time>2021-02-20T14:30:19+01:00</time>
      </trkpt>
      <trkpt lat="43.86453" lon="5.22316">
        <ele>203.7</ele>
        <time>2021-02-20T14:30:45+01:00</time>
      </trkpt>
      <trkpt lat="43.86472" lon="5.22334">
        <ele>202.7</ele>
        <time>2021-02-20T14:31:30+01:00</time>
      </trkpt>
      <trkpt lat="43.86484" lon="5.22361">
        <ele>205.4</ele>
        <time>2021-02-20T14:32:03+01:00</time>
      </trkpt>
      <trkpt lat="43.86494" lon="5.22389">
        <ele>208.7</ele>
        <time>2021-02-20T14:32:34+01:00</time>
      </trkpt>
      <trkpt lat="43.86503" lon="5.22419">
        <ele>212.8</ele>
        <time>2021-02-20T14:33:11+01:00</time>
      </trkpt>
      <trkpt lat="43.86511" lon="5.22449">
        <ele>218.2</ele>
        <time>2021-02-20T14:33:55+01:00</time>
      </trkpt>
      <trkpt lat="43.8652" lon="5.22478">
        <ele>223.2</ele>
        <time>2021-02-20T14:34:51+01:00</time>
      </trkpt>
      <trkpt lat="43.86526" lon="5.22508">
        <ele>227.8</ele>
        <time>2021-02-20T14:35:43+01:00</time>
      </trkpt>
      <trkpt lat="43.86534" lon="5.22538">
        <ele>232</ele>
        <time>2021-02-20T14:36:22+01:00</time>
      </trkpt>
      <trkpt lat="43.86546" lon="5.22567">
        <ele>235.9</ele>
        <time>2021-02-20T14:37:00+01:00</time>
      </trkpt>
      <trkpt lat="43.86564" lon="5.22586">
        <ele>238.6</ele>
        <time>2021-02-20T14:37:30+01:00</time>
      </trkpt>
      <trkpt lat="43.86583" lon="5.22602">
        <ele>241</ele>
        <time>2021-02-20T14:38:03+01:00</time>
      </trkpt>
      <trkpt lat="43.86604" lon="5.22616">
        <ele>243.4</ele>
        <time>2021-02-20T14:38:28+01:00</time>
      </trkpt>
      <trkpt lat="43.86621" lon="5.22637">
        <ele>246.3</ele>
        <time>2021-02-20T14:39:07+01:00</time>
      </trkpt>
      <trkpt lat="43.86638" lon="5.22658">
        <ele>249.1</ele>
        <time>2021-02-20T14:39:37+01:00</time>
      </trkpt>
      <trkpt lat="43.86659" lon="5.22674">
        <ele>250.6</ele>
        <time>2021-02-20T14:42:00+01:00</time>
      </trkpt>
      <trkpt lat="43.86676" lon="5.22697">
        <ele>250.2</ele>
        <time>2021-02-20T14:42:30+01:00</time>
      </trkpt>
      <trkpt lat="43.86687" lon="5.22724">
        <ele>249</ele>
        <time>2021-02-20T14:43:52+01:00</time>
      </trkpt>
      <trkpt lat="43.86695" lon="5.22753">
        <ele>246.6</ele>
        <time>2021-02-20T14:44:41+01:00</time>
      </trkpt>
      <trkpt lat="43.86699" lon="5.22785">
        <ele>236.5</ele>
        <time>2021-02-20T14:46:36+01:00</time>
      </trkpt>
      <trkpt lat="43.86701" lon="5.22816">
        <ele>226.4</ele>
        <time>2021-02-20T14:49:01+01:00</time>
      </trkpt>
      <trkpt lat="43.86693" lon="5.22845">
        <ele>218.3</ele>
        <time>2021-02-20T14:51:22+01:00</time>
      </trkpt>
      <trkpt lat="43.86693" lon="5.22876">
        <ele>207</ele>
        <time>2021-02-20T14:53:25+01:00</time>
      </trkpt>
      <trkpt lat="43.86692" lon="5.22908">
        <ele>195.6</ele>
        <time>2021-02-20T14:54:23+01:00</time>
      </trkpt>
      <trkpt lat="43.86691" lon="5.2294">
        <ele>187.2</ele>
        <time>2021-02-20T14:55:01+01:00</time>
      </trkpt>
      <trkpt lat="43.86686" lon="5.22971">
        <ele>180.4</ele>
        <time>2021-02-20T14:55:43+01:00</time>
      </trkpt>
      <trkpt lat="43.86681" lon="5.23001">
        <ele>173.5</ele>
        <time>2021-02-20T14:56:46+01:00</time>
      </trkpt>
      <trkpt lat="43.86693" lon="5.2303">
        <ele>166.1</ele>
        <time>2021-02-20T14:57:45+01:00</time>
      </trkpt>
      <trkpt lat="43.86706" lon="5.23056">
        <ele>159</ele>
        <time>2021-02-20T14:58:42+01:00</time>
      </trkpt>
      <trkpt lat="43.86726" lon="5.23074">
        <ele>154.1</ele>
        <time>2021-02-20T14:59:28+01:00</time>
      </trkpt>
      <trkpt lat="43.86747" lon="5.23083">
        <ele>151.3</ele>
        <time>2021-02-20T15:00:15+01:00</time>
      </trkpt>
      <trkpt lat="43.86762" lon="5.23107">
        <ele>149.4</ele>
        <time>2021-02-20T15:00:48+01:00</time>
      </trkpt>
      <trkpt lat="43.86765" lon="5.23139">
        <ele>147.6</ele>
        <time>2021-02-20T15:01:17+01:00</time>
      </trkpt>
      <trkpt lat="43.8676" lon="5.23169">
        <ele>146.1</ele>
        <time>2021-02-20T15:01:40+01:00</time>
      </trkpt>
      <trkpt lat="43.86755" lon="5.232">
        <ele>146.8</ele>
        <time>2021-02-20T15:02:02+01:00</time>
      </trkpt>
      <trkpt lat="43.86751" lon="5.2323">
        <ele>147.5</ele>
        <time>2021-02-20T15:02:26+01:00</time>
      </trkpt>
      <trkpt lat="43.86745" lon="5.23261">
        <ele>148.3</ele>
        <time>2021-02-20T15:02:50+01:00</time>
      </trkpt>
      <trkpt lat="43.86742" lon="5.23292">
        <ele>149.9</ele>
        <time>2021-02-20T15:03:36+01:00</time>
      </trkpt>
      <trkpt lat="43.86739" lon="5.23324">
        <ele>151.5</ele>
        <time>2021-02-20T15:03:59+01:00</time>
      </trkpt>
      <trkpt lat="43.86737" lon="5.23355">
        <ele>153.8</ele>
        <time>2021-02-20T15:04:21+01:00</time>
      </trkpt>
      <trkpt lat="43.86736" lon="5.23388">
        <ele>156.7</ele>
        <time>2021-02-20T15:04:44+01:00</time>
      </trkpt>
      <trkpt lat="43.86728" lon="5.23417">
        <ele>159.3</ele>
        <time>2021-02-20T15:05:19+01:00</time>
      </trkpt>
      <trkpt lat="43.86715" lon="5.23442">
        <ele>162.6</ele>
        <time>2021-02-20T15:05:53+01:00</time>
      </trkpt>
      <trkpt lat="43.86703" lon="5.23469">
        <ele>166.2</ele>
        <time>2021-02-20T15:06:20+01:00</time>
      </trkpt>
      <trkpt lat="43.86687" lon="5.23492">
        <ele>169.9</ele>
        <time>2021-02-20T15:06:53+01:00</time>
      </trkpt>
      <trkpt lat="43.86673" lon="5.23516">
        <ele>173.9</ele>
        <time>2021-02-20T15:07:23+01:00</time>
      </trkpt>
      <trkpt lat="43.86661" lon="5.23543">
        <ele>178.9</ele>
        <time>2021-02-20T15:07:52+01:00</time>
      </trkpt>
      <trkpt lat="43.8664" lon="5.23556">
        <ele>183.3</ele>
        <time>2021-02-20T15:08:37+01:00</time>
      </trkpt>
      <trkpt lat="43.86624" lon="5.23578">
        <ele>188.8</ele>
        <time>2021-02-20T15:09:22+01:00</time>
      </trkpt>
      <trkpt lat="43.86601" lon="5.23581">
        <ele>192.3</ele>
        <time>2021-02-20T15:10:26+01:00</time>
      </trkpt>
      <trkpt lat="43.86587" lon="5.23607">
        <ele>197.2</ele>
        <time>2021-02-20T15:11:01+01:00</time>
      </trkpt>
      <trkpt lat="43.86577" lon="5.23636">
        <ele>201.6</ele>
        <time>2021-02-20T15:12:00+01:00</time>
      </trkpt>
      <trkpt lat="43.86561" lon="5.23658">
        <ele>205.1</ele>
        <time>2021-02-20T15:13:10+01:00</time>
      </trkpt>
      <trkpt lat="43.86551" lon="5.23686">
        <ele>207.2</ele>
        <time>2021-02-20T15:13:40+01:00</time>
      </trkpt>
      <trkpt lat="43.86531" lon="5.23702">
        <ele>209.4</ele>
        <time>2021-02-20T15:14:21+01:00</time>
      </trkpt>
      <trkpt lat="43.86515" lon="5.23726">
        <ele>212.4</ele>
        <time>2021-02-20T15:19:15+01:00</time>
      </trkpt>
      <trkpt lat="43.86504" lon="5.23754">
        <ele>215.6</ele>
        <time>2021-02-20T15:19:42+01:00</time>
      </trkpt>
      <trkpt lat="43.865" lon="5.23785">
        <ele>217.7</ele>
        <time>2021-02-20T15:20:01+01:00</time>
      </trkpt>
      <trkpt lat="43.86486" lon="5.23811">
        <ele>220.9</ele>
        <time>2021-02-20T15:20:32+01:00</time>
      </trkpt>
      <trkpt lat="43.86476" lon="5.2384">
        <ele>224.4</ele>
        <time>2021-02-20T15:21:00+01:00</time>
      </trkpt>
      <trkpt lat="43.86458" lon="5.23859">
        <ele>228.9</ele>
        <time>2021-02-20T15:21:28+01:00</time>
      </trkpt>
      <trkpt lat="43.86454" lon="5.23891">
        <ele>232.3</ele>
        <time>2021-02-20T15:21:50+01:00</time>
      </trkpt>
      <trkpt lat="43.86457" lon="5.23922">
        <ele>235</ele>
        <time>2021-02-20T15:22:20+01:00</time>
      </trkpt>
      <trkpt lat="43.86472" lon="5.23947">
        <ele>236.7</ele>
        <time>2021-02-20T15:22:49+01:00</time>
      </trkpt>
      <trkpt lat="43.86483" lon="5.23974">
        <ele>238.9</ele>
        <time>2021-02-20T15:23:46+01:00</time>
      </trkpt>
      <trkpt lat="43.8646" lon="5.23979">
        <ele>243.9</ele>
        <time>2021-02-20T15:24:40+01:00</time>
      </trkpt>
      <trkpt lat="43.86437" lon="5.23985">
        <ele>248.8</ele>
        <time>2021-02-20T15:25:52+01:00</time>
      </trkpt>
      <trkpt lat="43.86419" lon="5.24004">
        <ele>254.7</ele>
        <time>2021-02-20T15:26:41+01:00</time>
      </trkpt>
      <trkpt lat="43.86398" lon="5.24016">
        <ele>253.8</ele>
        <time>2021-02-20T15:27:47+01:00</time>
      </trkpt>
      <trkpt lat="43.86384" lon="5.23991">
        <ele>252.1</ele>
        <time>2021-02-20T15:28:14+01:00</time>
      </trkpt>
      <trkpt lat="43.86364" lon="5.24006">
        <ele>251.7</ele>
        <time>2021-02-20T15:30:11+01:00</time>
      </trkpt>
      <trkpt lat="43.8638" lon="5.24029">
        <ele>252.4</ele>
        <time>2021-02-20T15:33:23+01:00</time>
      </trkpt>
      <trkpt lat="43.86397" lon="5.2405">
        <ele>253.7</ele>
        <time>2021-02-20T15:33:54+01:00</time>
      </trkpt>
      <trkpt lat="43.86401" lon="5.24081">
        <ele>254.1</ele>
        <time>2021-02-20T15:34:25+01:00</time>
      </trkpt>
      <trkpt lat="43.86401" lon="5.24112">
        <ele>252</ele>
        <time>2021-02-20T15:35:06+01:00</time>
      </trkpt>
      <trkpt lat="43.86404" lon="5.24145">
        <ele>250.1</ele>
        <time>2021-02-20T15:35:27+01:00</time>
      </trkpt>
      <trkpt lat="43.86392" lon="5.24173">
        <ele>246.8</ele>
        <time>2021-02-20T15:36:55+01:00</time>
      </trkpt>
      <trkpt lat="43.86376" lon="5.24194">
        <ele>243.7</ele>
        <time>2021-02-20T15:37:22+01:00</time>
      </trkpt>
      <trkpt lat="43.86358" lon="5.24214">
        <ele>241.3</ele>
        <time>2021-02-20T15:38:47+01:00</time>
      </trkpt>
      <trkpt lat="43.86355" lon="5.24245">
        <ele>239.7</ele>
        <time>2021-02-20T15:39:21+01:00</time>
      </trkpt>
      <trkpt lat="43.8635" lon="5.24277">
        <ele>238.3</ele>
        <time>2021-02-20T15:40:21+01:00</time>
      </trkpt>
      <trkpt lat="43.86335" lon="5.243">
        <ele>237.7</ele>
        <time>2021-02-20T15:40:44+01:00</time>
      </trkpt>
      <trkpt lat="43.86321" lon="5.24325">
        <ele>235.8</ele>
        <time>2021-02-20T15:41:18+01:00</time>
      </trkpt>
      <trkpt lat="43.86316" lon="5.24356">
        <ele>233.9</ele>
        <time>2021-02-20T15:41:45+01:00</time>
      </trkpt>
      <trkpt lat="43.8631" lon="5.24387">
        <ele>231.9</ele>
        <time>2021-02-20T15:42:09+01:00</time>
      </trkpt>
      <trkpt lat="43.86306" lon="5.24418">
        <ele>230.3</ele>
        <time>2021-02-20T15:42:31+01:00</time>
      </trkpt>
      <trkpt lat="43.86298" lon="5.24448">
        <ele>229.3</ele>
        <time>2021-02-20T15:42:53+01:00</time>
      </trkpt>
      <trkpt lat="43.86282" lon="5.24471">
        <ele>228.8</ele>
        <time>2021-02-20T15:43:15+01:00</time>
      </trkpt>
      <trkpt lat="43.86261" lon="5.2448">
        <ele>228.9</ele>
        <time>2021-02-20T15:44:30+01:00</time>
      </trkpt>
    </trkseg>
  </trk>
</gpx>